Airfield :
LOGIN :

Register | Disclaimer

   EN    FR    IT 

 










Legend :    VFR   Marginal VFR   IFR   Intensive IFR   Very Intensive IFR
Visi :
Ceiling :
>= 8 km
>= 3000ft
5 to 8 km
1000 to 3000 ft
1500m to 5 km
500 to 1000 ft
800 to 1500m
200 to 500 ft
< 800m
< 200 ft
Symbols :   Thunderstorms  Fog  Heavy snow  Heavy precipitations  Wind > 20 kt
SIGMETs :     Misc.  Thunderstorms  Icing  Turbulence  Mountain Waves  Volcanic Ashes







- Airport Elevation : 36 ft
- IATA code : RIX


EVRA - Riga

CURRENT METAR :
  • 201920Z 33006KT 290V010 9999 -TSRA BKN049CB 19/18 Q1010 BECMG NSW

EXPIRED METARs :
  • 201850Z 08007KT 8000 -TSRA BKN045CB 19/19 Q1010 NOSIG
  • 201820Z VRB02KT 9999 -TSRA SCT036CB 20/18 Q1011 TEMPO 3000 -TSRA
  • 201750Z VRB02KT 9999 -TSRA BKN036CB 19/18 Q1010 NOSIG
  • 201720Z 17016KT 9999 -TSRA BKN036CB 20/17 Q1010 TEMPO 1500
  • 201650Z VRB01KT 9999 TS SCT038CB 26/20 Q1008 TEMPO 1500 TSRA

TAF TAF EVRA
Valid from the 20 at 18:00 until the 21 at 18:00 UTC


201706Z 2018/2118 VRB02KT 9999 BKN040
TEMPO 2018/2019 VRB30KT 1500 TSGR SCT030CB
TEMPO 2019/2021 4000 -TSRA SCT030CB
TEMPO 2023/2104 0700 FG BKN002
BECMG 2110/2112 34007KT
PROB40
TEMPO 2113/2118 SCT030CB
No reported NOTAMs for that airfield.
1 SIGMET reported for the Riga FIR (EVRR) :
 
Embedded thunderstorms
EVRR SIGMET A1 VALID 201718/202000 EVRA
EVRR RIGA FIR EMBD TS OBS WI N5713 E02302 - N5742 E02444- N5636 E02520 - N5636 E02307 - N5713 E02302 TOP FL400 MOV NNE KT NC=



MET'MAP, your aeronautical weather chart ! - Copyright ORBIFLY December 2007 - Disclaimer

ORBIFLY MET'MAP TEAM :

Programming & Development : Alexandra Zaïnal
Concept & Development : Baudouin d'Aumeries
Co-Development & Prog : Marc-Olivier Méhu
Technical & hardware support : Manuel Goepfert

Contact : metmap@orbifly.com




SOURCES & CREDITS :

   NOAA